Washington, DC (20073)

12:39 AM EST on November 24, 2014 (GMT -0500)
Logan Circle | Change Station
CLOSE
Current Station
Personal Weather Station
Location: Washington, DC
Elevation: 108 ft
Nearby Weather Stations

Elev 108 ft 38.91 °N, 77.03 °W | Updated 3 seconds ago

Rain
Rain
53.8 °F
Feels Like 53.8 °F
N
0.0
Wind Variable Wind from North
Gusts 0.0 mph

Today
High -- | Low -- °F
--% Chance of Precip.
Yesterday
High -- | Low -- °F
Precip. -- in
7:00 AM 4:48 PM
Waxing Crescent, 4% visible
Pressure 29.79 in
Visibility 4.0 miles
Clouds Mostly Cloudy 900 ft
Overcast 1400 ft
Dew Point 49 °F
Humidity 83%
Rainfall 0.15 in
Snow Depth Not available.
UV 0 out of 12
Pollen .10 out of 12
Air Quality Not available.
Flu Activity Not available.
SPECI KDCA 240501Z 14006KT 4SM RA BR BKN009 OVC014 13/11 A2979 RMK AO2 CIG 006V010 PRESFR P0002

More Conditions Fewer Conditions

Pressure 29.79 in
Visibility 4.0 miles
Clouds Mostly Cloudy 900 ft
Overcast 1400 ft
Dew Point 49 °F
Humidity 83%
Rainfall 0.15 in
Snow Depth Not available.
UV 0 out of 12
Pollen .10 out of 12
Air Quality Not available.
Flu Activity Not available.
SPECI KDCA 240501Z 14006KT 4SM RA BR BKN009 OVC014 13/11 A2979 RMK AO2 CIG 006V010 PRESFR P0002

More Conditions Fewer Conditions

10-Day Weather Forecast

Almanac

Astronomy

Nov. 24, 2014 Rise Set
Actual Time
Civil Twilight
Nautical Twilight
Astronomical Twilight
Moon
Length of Visible Light
Length of Day
Tomorrow will be .
, % of the Moon is Illuminated

Today's Extremes

State Highs State Lows

Community

WunderPhotos

Upload Photos

1,773,279 photos uploaded!

WunderBlogs® & News

Nearby

Air Quality

  Air Quality AQ Index Pollutant
Not available.

Snow Depth

Station Depth Elevation

Earthquake Activity

City Distance Mag. Time & Date
Minimum magnitude displayed is 2.5.

Coastal Water Temperatures

Place Temperature

Nearby Weather Stations